createdAt,value
2018-04-28T00:00:05.598Z,67.71
2018-04-28T00:02:35.707Z,67.81
2018-04-28T00:05:03.741Z,67.81
2018-04-28T00:07:31.545Z,68.09
2018-04-28T00:09:59.363Z,68.14
2018-04-28T00:12:27.464Z,68.05
2018-04-28T00:14:55.499Z,67.90
2018-04-28T00:17:23.295Z,67.82
2018-04-28T00:19:51.089Z,67.80
2018-04-28T00:22:18.881Z,67.92
2018-04-28T00:28:03.594Z,67.66
2018-04-28T00:30:35.071Z,68.65
2018-04-28T00:36:06.009Z,68.94
2018-04-28T00:38:33.829Z,69.17
2018-04-28T00:41:01.639Z,69.21
2018-04-28T00:43:29.437Z,69.89
2018-04-28T00:45:58.888Z,71.10
2018-04-28T00:48:46.072Z,72.06
2018-04-28T00:51:16.160Z,72.43
2018-04-28T00:53:44.165Z,72.64
2018-04-28T00:56:11.963Z,72.84
2018-04-28T00:58:46.071Z,72.80
2018-04-28T01:01:17.409Z,72.89
2018-04-28T01:04:02.931Z,72.82
2018-04-28T01:06:30.981Z,72.43
2018-04-28T01:08:59.364Z,72.62
2018-04-28T01:11:29.706Z,72.91
2018-04-28T01:13:58.337Z,72.81
2018-04-28T01:16:28.738Z,72.52
2018-04-28T01:19:00.331Z,72.66
2018-04-28T01:21:34.440Z,72.88
2018-04-28T01:27:15.605Z,74.29
2018-04-28T01:30:06.550Z,75.16
2018-04-28T01:35:55.205Z,76.76
2018-04-28T01:38:37.325Z,76.94
2018-04-28T01:41:11.893Z,77.04
2018-04-28T01:43:56.250Z,76.59
2018-04-28T01:46:27.657Z,76.74
2018-04-28T01:48:56.192Z,77.18
2018-04-28T01:51:31.593Z,78.20
2018-04-28T01:54:17.152Z,78.67
2018-04-28T01:56:47.302Z,78.88
2018-04-28T01:59:15.104Z,78.99
2018-04-28T02:01:42.902Z,79.05
2018-04-28T02:04:11.435Z,78.88
2018-04-28T02:06:47.117Z,78.80
2018-04-28T02:09:15.637Z,78.86
2018-04-28T02:11:45.209Z,79.37
2018-04-28T02:17:12.050Z,80.18
2018-04-28T02:19:43.377Z,80.35
2018-04-28T02:25:18.125Z,80.62
2018-04-28T02:27:50.224Z,80.53
2018-04-28T02:30:19.600Z,80.68
2018-04-28T02:32:47.405Z,80.79
2018-04-28T02:35:36.617Z,80.99
2018-04-28T02:41:14.137Z,81.26
2018-04-28T02:43:53.459Z,81.30
2018-04-28T02:46:24.062Z,81.51
2018-04-28T02:48:58.622Z,81.63
2018-04-28T02:51:28.177Z,81.91
2018-04-28T02:53:57.817Z,81.88
2018-04-28T02:56:30.421Z,82.15
2018-04-28T02:59:04.668Z,82.00
2018-04-28T03:01:42.617Z,81.95
2018-04-28T03:04:11.200Z,82.00
2018-04-28T03:06:43.445Z,81.90
2018-04-28T03:09:12.263Z,82.01
2018-04-28T03:11:43.805Z,82.03
2018-04-28T03:14:19.305Z,82.18
2018-04-28T03:16:55.923Z,82.43
2018-04-28T03:19:24.669Z,82.57
2018-04-28T03:21:52.475Z,82.74
2018-04-28T03:24:32.789Z,82.63
2018-04-28T03:27:03.337Z,82.60
2018-04-28T03:29:34.775Z,82.45
2018-04-28T03:32:03.223Z,82.54
2018-04-28T03:34:36.882Z,82.51
2018-04-28T03:37:08.442Z,82.50
2018-04-28T03:39:40.733Z,82.58
2018-04-28T03:42:11.299Z,82.04
2018-04-28T03:44:44.558Z,81.92
2018-04-28T03:47:32.093Z,81.85
2018-04-28T03:50:00.127Z,81.81
2018-04-28T03:52:27.960Z,81.79
2018-04-28T03:54:57.084Z,81.72
2018-04-28T03:57:37.470Z,81.36
2018-04-28T04:00:16.828Z,81.68
2018-04-28T04:02:56.183Z,81.95
2018-04-28T04:08:42.101Z,82.44
2018-04-28T04:11:22.437Z,82.47
2018-04-28T04:17:17.544Z,82.52
2018-04-28T04:19:56.968Z,82.37
2018-04-28T04:25:50.863Z,82.07
2018-04-28T04:28:37.002Z,81.81
2018-04-28T04:31:14.138Z,81.19
2018-04-28T04:33:43.541Z,81.02
2018-04-28T04:36:16.819Z,81.01
2018-04-28T04:38:46.363Z,80.97
2018-04-28T04:41:29.600Z,80.87
2018-04-28T04:47:23.497Z,80.51
2018-04-28T04:53:15.134Z,80.35
2018-04-28T04:55:55.393Z,79.87
2018-04-28T05:01:56.224Z,79.29
2018-04-28T05:04:26.320Z,79.13
2018-04-28T05:10:35.094Z,79.54
2018-04-28T05:16:13.677Z,79.64
2018-04-28T05:18:53.429Z,79.73
2018-04-28T05:21:25.808Z,79.85
2018-04-28T05:24:04.368Z,79.27
2018-04-28T05:29:52.521Z,79.08
2018-04-28T05:32:28.112Z,78.67
2018-04-28T05:37:56.838Z,77.71
2018-04-28T05:40:36.259Z,77.27
2018-04-28T05:43:15.869Z,77.24
2018-04-28T05:45:55.452Z,77.05
2018-04-28T05:48:30.803Z,77.05
2018-04-28T05:51:04.307Z,76.74
2018-04-28T05:53:41.695Z,76.41
2018-04-28T05:59:43.601Z,75.59
2018-04-28T06:05:34.329Z,75.06
2018-04-28T06:08:39.577Z,75.11
2018-04-28T06:11:22.320Z,74.85
2018-04-28T06:14:01.561Z,74.44
2018-04-28T06:16:37.065Z,74.29
2018-04-28T06:19:10.658Z,74.00
2018-04-28T06:21:39.024Z,73.69
2018-04-28T06:24:07.426Z,73.44
2018-04-28T06:26:35.500Z,73.22
2018-04-28T06:29:03.544Z,72.52
2018-04-28T06:31:31.587Z,72.19
2018-04-28T06:33:59.635Z,72.59
2018-04-28T06:36:28.015Z,72.55
2018-04-28T06:38:55.837Z,72.49
2018-04-28T06:41:23.885Z,72.09
2018-04-28T06:43:52.392Z,71.70
2018-04-28T06:46:20.486Z,71.55
2018-04-28T06:48:48.559Z,71.30
2018-04-28T06:51:16.958Z,70.95
2018-04-28T06:53:45.359Z,71.19
2018-04-28T06:56:13.453Z,70.83
2018-04-28T06:58:41.586Z,71.02
2018-04-28T07:01:09.771Z,71.06
2018-04-28T07:03:37.813Z,70.12
2018-04-28T07:06:05.881Z,71.00
2018-04-28T07:08:34.253Z,71.14
2018-04-28T07:11:02.300Z,70.68
2018-04-28T07:13:32.475Z,69.99
2018-04-28T07:16:00.537Z,69.30
2018-04-28T07:18:28.614Z,69.01
2018-04-28T07:20:56.441Z,69.12
2018-04-28T07:23:24.679Z,68.72
2018-04-28T07:25:53.063Z,68.76
2018-04-28T07:28:20.869Z,68.01
2018-04-28T07:30:48.697Z,67.00
2018-04-28T07:33:16.737Z,67.33
2018-04-28T07:35:44.797Z,66.90
2018-04-28T07:38:12.604Z,67.01
2018-04-28T07:40:40.647Z,67.04
2018-04-28T07:43:08.692Z,66.17
2018-04-28T07:45:36.725Z,65.56
2018-04-28T07:48:04.765Z,65.75
2018-04-28T07:50:32.828Z,65.01
2018-04-28T07:53:01.666Z,65.36
2018-04-28T07:55:29.751Z,64.92
2018-04-28T07:57:58.126Z,65.28
2018-04-28T08:00:26.531Z,65.75
2018-04-28T08:02:54.744Z,65.61
2018-04-28T08:05:22.797Z,66.02
2018-04-28T08:07:51.254Z,66.48
2018-04-28T08:10:18.909Z,66.10
2018-04-28T08:12:47.004Z,65.00
2018-04-28T08:15:15.097Z,63.92
2018-04-28T08:17:43.060Z,62.62
2018-04-28T08:20:11.132Z,62.88
2018-04-28T08:22:39.818Z,62.58
2018-04-28T08:25:07.909Z,62.05
2018-04-28T08:27:35.962Z,61.39
2018-04-28T08:30:03.592Z,61.59
2018-04-28T08:32:31.663Z,60.12
2018-04-28T08:34:59.586Z,60.26
2018-04-28T08:37:27.813Z,60.18
2018-04-28T08:39:55.743Z,60.35
2018-04-28T08:42:23.780Z,60.13
2018-04-28T08:44:51.921Z,59.78
2018-04-28T08:47:20.328Z,58.90
2018-04-28T08:49:48.726Z,58.20
2018-04-28T08:52:17.118Z,58.45
2018-04-28T08:54:46.249Z,58.32
2018-04-28T08:57:14.635Z,57.88
2018-04-28T09:02:47.076Z,57.06
2018-04-28T09:05:15.465Z,56.28
2018-04-28T09:07:43.838Z,55.01
2018-04-28T09:10:12.237Z,55.05
2018-04-28T09:12:40.618Z,55.03
2018-04-28T09:15:09.000Z,55.38
2018-04-28T09:17:37.910Z,55.60
2018-04-28T09:20:06.481Z,55.54
2018-04-28T09:22:34.856Z,54.08
2018-04-28T09:25:02.998Z,53.52
2018-04-28T09:27:31.090Z,53.26
2018-04-28T09:29:59.466Z,53.09
2018-04-28T09:32:27.614Z,53.44
2018-04-28T09:34:55.999Z,52.14
2018-04-28T09:37:24.384Z,51.84
2018-04-28T09:39:52.794Z,52.09
2018-04-28T09:42:21.734Z,52.23
2018-04-28T09:44:50.109Z,50.84
2018-04-28T09:47:18.802Z,49.73
2018-04-28T09:49:47.184Z,49.08
2018-04-28T09:52:15.563Z,48.69
2018-04-28T09:54:43.966Z,47.61
2018-04-28T09:57:12.360Z,46.89
2018-04-28T09:59:40.734Z,45.12
2018-04-28T10:02:14.424Z,44.83
2018-04-28T10:04:42.823Z,44.79
2018-04-28T10:07:11.221Z,44.06
2018-04-28T10:09:39.618Z,43.73
2018-04-28T10:12:08.014Z,43.43
2018-04-28T10:14:36.382Z,43.17
2018-04-28T10:17:04.740Z,41.17
2018-04-28T10:19:33.112Z,42.14
2018-04-28T10:22:02.314Z,41.54
2018-04-28T10:24:30.677Z,41.22
2018-04-28T10:27:00.691Z,41.12
2018-04-28T10:29:29.170Z,40.65
2018-04-28T10:31:57.542Z,38.78
2018-04-28T10:34:25.923Z,38.75
2018-04-28T10:36:54.312Z,39.98
2018-04-28T10:39:23.029Z,39.29
2018-04-28T10:41:51.428Z,38.96
2018-04-28T10:44:19.822Z,38.45
2018-04-28T10:46:48.209Z,37.83
2018-04-28T10:49:16.599Z,36.96
2018-04-28T10:51:44.978Z,37.27
2018-04-28T10:54:13.363Z,38.20
2018-04-28T10:56:41.917Z,37.66
2018-04-28T10:59:10.289Z,37.66
2018-04-28T11:01:38.653Z,36.14
2018-04-28T11:04:07.017Z,36.28
2018-04-28T11:06:35.403Z,36.42
2018-04-28T11:09:03.339Z,34.81
2018-04-28T11:11:31.712Z,35.40
2018-04-28T11:14:00.094Z,35.80
2018-04-28T11:16:29.250Z,35.23
2018-04-28T11:18:57.622Z,35.23
2018-04-28T11:21:25.759Z,34.62
2018-04-28T11:23:53.890Z,36.61
2018-04-28T11:26:22.256Z,36.01
2018-04-28T11:28:50.413Z,35.50
2018-04-28T11:31:19.190Z,36.25
2018-04-28T11:33:47.577Z,35.84
2018-04-28T11:36:15.943Z,35.77
2018-04-28T11:38:44.314Z,35.41
2018-04-28T11:41:12.685Z,34.85
2018-04-28T11:43:41.141Z,34.34
2018-04-28T11:46:09.609Z,34.28
2018-04-28T11:48:37.985Z,34.52
2018-04-28T11:51:06.356Z,34.40
2018-04-28T11:53:35.656Z,34.34
2018-04-28T11:56:04.038Z,34.14
2018-04-28T11:58:32.406Z,34.10
2018-04-28T12:01:00.798Z,33.93
2018-04-28T12:03:29.170Z,33.06
2018-04-28T12:05:57.596Z,33.48
2018-04-28T12:08:26.559Z,33.89
2018-04-28T12:10:54.961Z,33.64
2018-04-28T12:13:23.352Z,35.10
2018-04-28T12:15:51.737Z,34.63
2018-04-28T12:18:20.122Z,35.38
2018-04-28T12:20:48.549Z,35.36
2018-04-28T12:23:16.912Z,35.91
2018-04-28T12:25:45.308Z,36.36
2018-04-28T12:28:13.714Z,36.52
2018-04-28T12:30:42.085Z,36.25
2018-04-28T12:33:10.471Z,35.75
2018-04-28T12:35:38.845Z,35.18
2018-04-28T12:38:07.229Z,35.98
2018-04-28T12:40:35.599Z,36.17
2018-04-28T12:43:03.999Z,36.18
2018-04-28T12:45:33.140Z,36.78
2018-04-28T12:48:01.305Z,37.23
2018-04-28T12:50:29.728Z,36.53
2018-04-28T12:52:58.407Z,36.89
2018-04-28T12:55:26.791Z,36.69
2018-04-28T12:57:55.164Z,36.67
2018-04-28T13:00:23.537Z,36.38
2018-04-28T13:02:51.923Z,37.08
2018-04-28T13:05:20.304Z,36.26
2018-04-28T13:07:48.681Z,36.98
2018-04-28T13:10:17.083Z,37.48
2018-04-28T13:12:45.444Z,37.22
2018-04-28T13:15:14.679Z,37.63
2018-04-28T13:17:43.058Z,37.10
2018-04-28T13:20:11.441Z,35.74
2018-04-28T13:22:39.839Z,36.54
2018-04-28T13:25:08.220Z,36.77
2018-04-28T13:27:36.599Z,35.72
2018-04-28T13:30:04.693Z,36.12
2018-04-28T13:32:33.728Z,36.52
2018-04-28T13:35:02.178Z,36.34
2018-04-28T13:37:30.618Z,36.94
2018-04-28T13:39:58.984Z,36.36
2018-04-28T13:42:27.354Z,35.64
2018-04-28T13:44:55.764Z,36.28
2018-04-28T13:47:24.147Z,36.46
2018-04-28T13:49:52.524Z,36.83
2018-04-28T13:52:20.907Z,37.21
2018-04-28T13:54:49.304Z,37.23
2018-04-28T13:57:17.677Z,36.98
2018-04-28T13:59:46.057Z,37.28
2018-04-28T14:02:14.443Z,37.41
2018-04-28T14:04:42.826Z,36.95
2018-04-28T14:07:11.200Z,37.25
2018-04-28T14:09:39.599Z,37.05
2018-04-28T14:12:07.589Z,36.84
2018-04-28T14:14:35.722Z,36.84
2018-04-28T14:17:04.088Z,36.71
2018-04-28T14:19:32.447Z,36.91
2018-04-28T14:22:00.816Z,36.84
2018-04-28T14:24:29.225Z,36.78
2018-04-28T14:26:58.024Z,36.96
2018-04-28T14:29:26.521Z,37.29
2018-04-28T14:31:54.904Z,37.99
2018-04-28T14:34:23.271Z,37.68
2018-04-28T14:36:51.657Z,37.78
2018-04-28T14:39:20.038Z,38.33
2018-04-28T14:41:48.413Z,38.47
2018-04-28T14:44:16.861Z,38.80
2018-04-28T14:46:46.439Z,39.12
2018-04-28T14:49:14.814Z,38.89
2018-04-28T14:51:43.771Z,38.98
2018-04-28T14:54:12.293Z,39.23
2018-04-28T14:56:40.682Z,38.13
2018-04-28T14:59:10.005Z,38.39
2018-04-28T15:01:38.373Z,38.58
2018-04-28T15:04:06.737Z,39.04
2018-04-28T15:06:35.101Z,39.17
2018-04-28T15:09:03.217Z,39.51
2018-04-28T15:11:31.602Z,39.52
2018-04-28T15:13:59.988Z,39.72
2018-04-28T15:16:28.369Z,40.32
2018-04-28T15:18:56.789Z,40.66
2018-04-28T15:21:25.823Z,40.94
2018-04-28T15:23:54.206Z,41.33
2018-04-28T15:26:22.590Z,41.56
2018-04-28T15:28:50.965Z,41.61
2018-04-28T15:31:19.358Z,41.10
2018-04-28T15:33:47.991Z,41.11
2018-04-28T15:36:16.387Z,41.22
2018-04-28T15:38:44.771Z,42.06
2018-04-28T15:41:13.274Z,42.09
2018-04-28T15:43:42.458Z,42.84
2018-04-28T15:46:10.846Z,43.33
2018-04-28T15:48:39.231Z,43.08
2018-04-28T15:51:07.625Z,42.49
2018-04-28T15:53:36.184Z,42.37
2018-04-28T15:56:04.557Z,42.60
2018-04-28T15:58:32.929Z,42.58
2018-04-28T16:01:01.304Z,42.91
2018-04-28T16:03:29.702Z,43.12
2018-04-28T16:05:58.070Z,43.19
2018-04-28T16:08:26.481Z,42.99
2018-04-28T16:10:54.868Z,43.36
2018-04-28T16:13:23.430Z,43.21
2018-04-28T16:15:53.832Z,43.08
2018-04-28T16:18:22.194Z,43.33
2018-04-28T16:20:50.627Z,43.74
2018-04-28T16:23:18.994Z,43.96
2018-04-28T16:25:47.410Z,43.80
2018-04-28T16:28:15.868Z,43.84
2018-04-28T16:30:44.276Z,43.94
2018-04-28T16:33:12.669Z,44.07
2018-04-28T16:35:41.044Z,44.32
2018-04-28T16:38:09.426Z,44.20
2018-04-28T16:40:37.797Z,44.21
2018-04-28T16:43:06.177Z,43.99
2018-04-28T16:45:34.557Z,44.03
2018-04-28T16:48:03.123Z,44.12
2018-04-28T16:50:31.512Z,44.53
2018-04-28T16:52:59.941Z,44.94
2018-04-28T16:55:28.338Z,45.51
2018-04-28T16:57:56.741Z,46.16
2018-04-28T17:00:25.109Z,46.36
2018-04-28T17:02:54.041Z,46.39
2018-04-28T17:05:22.491Z,46.47
2018-04-28T17:07:50.872Z,46.67
2018-04-28T17:10:19.279Z,46.53
2018-04-28T17:12:47.645Z,46.59
2018-04-28T17:15:16.020Z,46.61
2018-04-28T17:17:53.719Z,46.64
2018-04-28T17:20:22.124Z,46.75
2018-04-28T17:22:50.568Z,46.99
2018-04-28T17:25:18.978Z,47.14
2018-04-28T17:27:47.353Z,47.38
2018-04-28T17:30:15.400Z,47.60
2018-04-28T17:32:43.860Z,47.94
2018-04-28T17:35:12.233Z,48.17
2018-04-28T17:37:40.620Z,48.24
2018-04-28T17:40:09.709Z,48.46
2018-04-28T17:42:38.078Z,48.67
2018-04-28T17:45:07.101Z,49.08
2018-04-28T17:47:36.042Z,49.44
2018-04-28T17:50:08.926Z,49.60
2018-04-28T17:52:37.340Z,49.93
2018-04-28T17:55:06.156Z,50.09
2018-04-28T17:57:34.585Z,50.41
2018-04-28T18:00:02.956Z,50.82
2018-04-28T18:02:32.135Z,51.06
2018-04-28T18:05:00.747Z,51.55
2018-04-28T18:07:29.134Z,51.89
2018-04-28T18:09:57.504Z,52.17
2018-04-28T18:12:25.873Z,52.49
2018-04-28T18:14:54.240Z,52.77
2018-04-28T18:17:22.618Z,52.94
2018-04-28T18:19:50.989Z,53.24
2018-04-28T18:22:19.348Z,53.52
2018-04-28T18:24:47.734Z,53.76
2018-04-28T18:27:16.107Z,54.07
2018-04-28T18:29:44.474Z,54.26
2018-04-28T18:32:12.853Z,54.47
2018-04-28T18:34:41.236Z,54.61
2018-04-28T18:37:09.993Z,54.83
2018-04-28T18:39:38.397Z,54.96
2018-04-28T18:42:06.802Z,55.15
2018-04-28T18:44:35.525Z,55.37
2018-04-28T18:47:03.888Z,55.45
2018-04-28T18:49:32.305Z,55.49
2018-04-28T18:52:00.715Z,55.75
2018-04-28T18:54:29.096Z,55.94
2018-04-28T18:56:57.238Z,56.14
2018-04-28T18:59:25.671Z,56.31
2018-04-28T19:01:54.213Z,56.65
2018-04-28T19:04:22.581Z,56.88
2018-04-28T19:06:50.966Z,56.87
2018-04-28T19:09:20.074Z,57.13
2018-04-28T19:11:48.468Z,57.35
2018-04-28T19:14:16.807Z,57.33
2018-04-28T19:16:45.490Z,57.34
2018-04-28T19:19:13.890Z,57.62
2018-04-28T19:21:42.277Z,57.70
2018-04-28T19:24:10.651Z,57.85
2018-04-28T19:26:39.033Z,57.78
2018-04-28T19:29:07.402Z,57.94
2018-04-28T19:31:35.768Z,58.04
2018-04-28T19:34:04.147Z,57.82
2018-04-28T19:36:32.529Z,57.61
2018-04-28T19:39:00.902Z,57.55
2018-04-28T19:41:29.277Z,57.60
2018-04-28T19:43:57.434Z,57.62
2018-04-28T19:46:25.816Z,57.62
2018-04-28T19:48:54.190Z,57.97
2018-04-28T19:51:22.345Z,58.12
2018-04-28T19:53:50.823Z,58.48
2018-04-28T19:56:19.307Z,58.78
2018-04-28T19:58:48.258Z,58.87
2018-04-28T20:01:16.628Z,58.99
2018-04-28T20:03:45.054Z,59.10
2018-04-28T20:06:13.447Z,59.22
2018-04-28T20:08:41.825Z,59.19
2018-04-28T20:11:10.224Z,59.29
2018-04-28T20:13:38.615Z,59.30
2018-04-28T20:16:06.993Z,59.16
2018-04-28T20:18:35.368Z,59.24
2018-04-28T20:21:03.748Z,59.20
2018-04-28T20:23:44.231Z,58.30
2018-04-28T20:26:12.625Z,58.10
2018-04-28T20:28:40.989Z,58.45
2018-04-28T20:31:10.086Z,58.39
2018-04-28T20:33:38.466Z,58.05
2018-04-28T20:36:06.888Z,58.28
2018-04-28T20:38:35.668Z,58.17
2018-04-28T20:41:04.057Z,58.11
2018-04-28T20:43:32.440Z,58.22
2018-04-28T20:46:00.868Z,58.38
2018-04-28T20:48:29.328Z,58.39
2018-04-28T20:50:57.706Z,58.25
2018-04-28T20:53:26.161Z,58.39
2018-04-28T20:55:54.557Z,58.55
2018-04-28T20:58:22.960Z,58.51
2018-04-28T21:00:51.349Z,58.46
2018-04-28T21:03:19.719Z,58.57
2018-04-28T21:05:48.114Z,58.57
2018-04-28T21:08:16.488Z,58.57
2018-04-28T21:10:44.888Z,58.60
2018-04-28T21:13:13.250Z,58.55
2018-04-28T21:15:41.624Z,58.61
2018-04-28T21:18:10.030Z,58.49
2018-04-28T21:20:38.406Z,58.42
2018-04-28T21:23:06.816Z,58.44
2018-04-28T21:25:35.190Z,58.34
2018-04-28T21:28:03.581Z,58.35
2018-04-28T21:30:31.969Z,58.52
2018-04-28T21:33:00.377Z,58.63
2018-04-28T21:35:28.929Z,58.65
2018-04-28T21:37:57.321Z,58.86
2018-04-28T21:40:25.701Z,59.03
2018-04-28T21:42:54.067Z,59.30
2018-04-28T21:45:22.211Z,59.39
2018-04-28T21:47:50.588Z,59.46
2018-04-28T21:50:18.967Z,59.59
2018-04-28T21:52:47.353Z,59.44
2018-04-28T21:55:16.328Z,59.48
2018-04-28T21:57:44.716Z,59.57
2018-04-28T22:00:13.128Z,59.40
2018-04-28T22:02:41.497Z,59.36
2018-04-28T22:05:17.378Z,59.38
2018-04-28T22:07:45.759Z,59.51
2018-04-28T22:10:17.129Z,59.69
2018-04-28T22:12:45.549Z,59.62
2018-04-28T22:17:48.427Z,59.97
2018-04-28T22:20:17.065Z,59.94
2018-04-28T22:22:45.442Z,59.95
2018-04-28T22:25:15.012Z,60.02
2018-04-28T22:27:43.433Z,59.98
2018-04-28T22:30:16.870Z,59.60
2018-04-28T22:32:45.276Z,59.56
2018-04-28T22:35:13.777Z,59.59
2018-04-28T22:37:42.164Z,59.32
2018-04-28T22:40:21.805Z,58.79
2018-04-28T22:42:50.176Z,58.72
2018-04-28T22:45:18.671Z,58.56
2018-04-28T22:47:47.089Z,58.51
2018-04-28T22:50:17.047Z,58.43
2018-04-28T22:52:45.441Z,58.45
2018-04-28T22:55:13.835Z,58.41
2018-04-28T22:57:42.209Z,58.53
2018-04-28T23:00:15.052Z,58.47
2018-04-28T23:02:43.453Z,58.42
2018-04-28T23:05:15.498Z,58.55
2018-04-28T23:07:43.869Z,58.78
2018-04-28T23:10:16.493Z,58.85
2018-04-28T23:12:44.976Z,59.12
2018-04-28T23:15:14.653Z,59.26
2018-04-28T23:17:43.036Z,59.60
2018-04-28T23:20:11.412Z,59.87
2018-04-28T23:22:39.795Z,59.96
2018-04-28T23:25:12.077Z,60.22
2018-04-28T23:27:40.459Z,60.15
2018-04-28T23:30:13.404Z,60.07
2018-04-28T23:32:41.817Z,60.08
2018-04-28T23:35:10.215Z,60.45
2018-04-28T23:37:38.630Z,60.58
2018-04-28T23:40:15.125Z,60.75
2018-04-28T23:42:43.511Z,60.56
2018-04-28T23:45:12.602Z,60.43
2018-04-28T23:47:40.987Z,60.10
2018-04-28T23:50:16.472Z,59.81
2018-04-28T23:52:44.625Z,59.47
2018-04-28T23:55:14.291Z,59.00
2018-04-28T23:57:42.665Z,58.63
